Time;durP1;ratioP1;P1;durP2;ratioP2;P2;SDS_P1;SDS_P2;PMS_P1;PMS_P2;Temp;Humidity;BMP_temperature;BMP_pressure;BME280_temperature;BME280_humidity;BME280_pressure;Samples;Min_cycle;Max_cycle;Signal;HPM_P1;HPM_P2
2024/04/10 00:00:48;;;;;;;2.95;1.00;;;12.70;50.40;;;;;;5514059;25;19993;-70
2024/04/10 00:03:16;;;;;;;3.00;0.80;;;12.70;51.10;;;;;;5520985;25;20341;-70
2024/04/10 00:05:58;;;;;;;1.83;0.63;;;12.50;52.20;;;;;;5508771;25;20069;-70
2024/04/10 00:08:25;;;;;;;3.00;0.82;;;12.50;53.00;;;;;;5512861;25;20012;-70
2024/04/10 00:10:51;;;;;;;5.00;1.15;;;12.40;54.20;;;;;;5520296;25;19994;-70
2024/04/10 00:13:16;;;;;;;2.25;1.05;;;12.30;55.30;;;;;;5520459;25;20045;-70
2024/04/10 00:15:42;;;;;;;5.43;0.77;;;12.20;56.90;;;;;;5512199;25;20001;-70
2024/04/10 00:18:07;;;;;;;1.58;0.77;;;12.20;58.60;;;;;;5517789;25;20005;-69
2024/04/10 00:20:33;;;;;;;3.33;1.10;;;12.10;59.30;;;;;;5515835;25;20002;-70
2024/04/10 00:22:58;;;;;;;1.77;0.80;;;12.00;60.60;;;;;;5520091;25;19998;-70
2024/04/10 00:25:24;;;;;;;3.38;1.00;;;11.90;62.20;;;;;;5517430;25;20016;-71
2024/04/10 00:27:49;;;;;;;3.95;0.90;;;11.90;64.20;;;;;;5515606;25;20038;-70
2024/04/10 00:30:15;;;;;;;4.97;1.00;;;11.80;65.30;;;;;;5517917;25;20376;-70
2024/04/10 00:32:40;;;;;;;2.70;0.63;;;11.80;67.60;;;;;;5515811;25;20333;-69
2024/04/10 00:35:06;;;;;;;2.58;0.90;;;11.80;68.00;;;;;;5522340;25;20074;-70
2024/04/10 00:37:32;;;;;;;3.65;1.20;;;11.70;68.30;;;;;;5513738;25;20008;-70
2024/04/10 00:39:57;;;;;;;7.70;1.00;;;11.70;70.60;;;;;;5517780;25;20452;-70
2024/04/10 00:42:23;;;;;;;1.35;0.80;;;11.60;71.50;;;;;;5516061;25;20012;-71
2024/04/10 00:44:56;;;;;;;1.92;0.77;;;11.50;74.50;;;;;;5520538;25;20519;-70
2024/04/10 00:47:23;;;;;;;3.88;1.00;;;11.50;76.10;;;;;;5515809;25;20048;-70
2024/04/10 00:49:49;;;;;;;4.13;1.15;;;11.50;76.10;;;;;;5519493;25;19998;-70
2024/04/10 00:52:16;;;;;;;2.92;1.00;;;11.40;83.70;;;;;;5527820;25;20050;-71
2024/04/10 00:54:43;;;;;;;4.85;1.23;;;11.30;82.00;;;;;;5508287;25;20001;-71
2024/04/10 00:57:09;;;;;;;2.45;0.80;;;11.30;82.90;;;;;;5520220;25;19997;-71
2024/04/10 00:59:35;;;;;;;2.13;0.90;;;11.20;85.60;;;;;;5516897;25;20125;-70
2024/04/10 01:02:04;;;;;;;4.32;0.80;;;11.20;86.70;;;;;;5518583;25;19994;-71
2024/04/10 01:04:29;;;;;;;4.55;1.42;;;11.20;86.70;;;;;;5522483;25;20463;-70
2024/04/10 01:06:55;;;;;;;4.38;1.58;;;11.20;86.20;;;;;;5514939;25;19997;-71
2024/04/10 01:09:20;;;;;;;5.40;1.33;;;11.20;90.70;;;;;;5509250;25;20009;-72
2024/04/10 01:11:46;;;;;;;7.03;1.30;;;11.10;91.10;;;;;;5523557;25;20423;-71
2024/04/10 01:14:11;;;;;;;6.35;1.05;;;11.10;92.00;;;;;;5517290;25;19993;-72
2024/04/10 01:16:37;;;;;;;1.80;0.90;;;11.10;93.30;;;;;;5513660;25;20461;-71
2024/04/10 01:19:03;;;;;;;7.45;1.40;;;11.00;94.50;;;;;;5522623;25;20005;-71
2024/04/10 01:21:29;;;;;;;6.40;1.30;;;11.00;95.40;;;;;;5518282;25;20442;-72
2024/04/10 01:23:54;;;;;;;4.63;1.45;;;11.00;94.90;;;;;;5517110;25;20012;-71
2024/04/10 01:26:20;;;;;;;5.22;1.20;;;10.90;96.10;;;;;;5519256;25;20015;-70
2024/04/10 01:28:46;;;;;;;5.97;1.10;;;10.90;95.40;;;;;;5516372;25;20017;-71
2024/04/10 01:31:12;;;;;;;1.98;1.10;;;10.90;95.80;;;;;;5517243;25;19994;-70
2024/04/10 01:33:38;;;;;;;5.57;1.30;;;10.90;96.00;;;;;;5518851;25;20011;-71
2024/04/10 01:36:03;;;;;;;3.75;1.27;;;10.90;96.50;;;;;;5521651;25;19998;-72
2024/04/10 01:38:30;;;;;;;3.45;1.38;;;10.80;98.60;;;;;;5523892;25;19997;-70
2024/04/10 01:40:55;;;;;;;6.22;1.15;;;10.90;99.90;;;;;;5505235;25;20029;-69
2024/04/10 01:43:21;;;;;;;5.93;1.65;;;10.80;99.90;;;;;;5522446;25;19997;-68
2024/04/10 01:45:46;;;;;;;3.08;1.50;;;10.80;99.90;;;;;;5517450;25;20011;-71
2024/04/10 01:48:12;;;;;;;5.65;1.40;;;10.70;99.90;;;;;;5516494;25;20012;-71
2024/04/10 01:50:37;;;;;;;3.08;1.38;;;10.70;99.90;;;;;;5518550;25;20357;-70
2024/04/10 01:53:03;;;;;;;5.68;1.23;;;10.70;99.90;;;;;;5519838;25;20022;-70
2024/04/10 01:55:28;;;;;;;9.15;1.77;;;10.70;99.90;;;;;;5522690;25;19997;-70
2024/04/10 01:57:54;;;;;;;7.38;1.73;;;10.70;99.90;;;;;;5517933;25;19998;-70
2024/04/10 02:00:22;;;;;;;6.03;1.58;;;10.70;99.90;;;;;;5517989;25;19997;-71
2024/04/10 02:02:48;;;;;;;4.47;1.48;;;10.70;99.90;;;;;;5523516;25;20008;-71
2024/04/10 02:05:14;;;;;;;6.95;1.60;;;10.70;99.90;;;;;;5519766;25;20005;-71
2024/04/10 02:07:40;;;;;;;5.65;1.45;;;10.70;99.90;;;;;;5526181;25;20008;-71
2024/04/10 02:10:06;;;;;;;6.10;1.70;;;10.70;99.90;;;;;;5512862;25;20450;-71
2024/04/10 02:12:31;;;;;;;4.13;1.40;;;10.70;99.90;;;;;;5520781;25;20001;-70
2024/04/10 02:14:57;;;;;;;3.90;1.42;;;10.70;99.90;;;;;;5517266;25;20009;-70
2024/04/10 02:17:22;;;;;;;3.47;1.63;;;10.70;99.90;;;;;;5522103;25;20012;-71
2024/04/10 02:19:51;;;;;;;3.47;1.42;;;10.70;99.90;;;;;;5530084;25;19997;-70
2024/04/10 02:22:17;;;;;;;4.97;1.50;;;10.70;99.90;;;;;;5518437;25;20445;-71
2024/04/10 02:24:42;;;;;;;2.55;1.52;;;10.60;99.90;;;;;;5517591;25;20001;-70
2024/04/10 02:27:08;;;;;;;3.88;1.40;;;10.70;99.90;;;;;;5521447;25;19997;-70
2024/04/10 02:29:33;;;;;;;4.35;1.50;;;10.60;99.90;;;;;;5515950;25;19997;-70
2024/04/10 02:31:59;;;;;;;4.47;2.05;;;10.60;99.90;;;;;;5522273;25;20485;-70
2024/04/10 02:34:25;;;;;;;4.95;1.38;;;10.60;99.90;;;;;;5522167;25;20469;-71
2024/04/10 02:36:51;;;;;;;2.58;1.80;;;10.60;99.90;;;;;;5518065;25;19996;-70
2024/04/10 02:39:16;;;;;;;5.28;1.60;;;10.60;99.90;;;;;;5513826;25;19994;-71
2024/04/10 02:41:42;;;;;;;3.67;1.23;;;10.60;99.90;;;;;;5529457;25;20029;-72
2024/04/10 02:44:07;;;;;;;6.93;1.70;;;10.60;99.90;;;;;;5516946;25;19998;-73
2024/04/10 02:46:32;;;;;;;5.22;1.70;;;10.60;99.90;;;;;;5520253;25;20001;-72
2024/04/10 02:48:58;;;;;;;3.30;1.52;;;10.60;99.90;;;;;;5508906;25;20084;-72
2024/04/10 02:51:23;;;;;;;3.00;1.80;;;10.60;99.90;;;;;;5521751;25;20001;-72
2024/04/10 02:53:49;;;;;;;4.63;1.80;;;10.60;99.90;;;;;;5522031;25;20009;-71
2024/04/10 02:56:14;;;;;;;3.45;1.50;;;10.60;99.90;;;;;;5514726;25;20001;-72
2024/04/10 02:58:40;;;;;;;3.17;2.20;;;10.60;99.90;;;;;;5520104;25;20001;-71
2024/04/10 03:01:05;;;;;;;3.63;1.70;;;10.60;99.90;;;;;;5521723;25;20000;-73
2024/04/10 03:03:31;;;;;;;2.17;1.30;;;10.50;99.90;;;;;;5520315;25;20002;-71
2024/04/10 03:06:07;;;;;;;7.03;2.17;;;10.50;99.90;;;;;;5514947;25;20450;-71
2024/04/10 03:08:34;;;;;;;5.50;1.83;;;10.50;99.90;;;;;;5526451;25;20103;-72
2024/04/10 03:11:00;;;;;;;6.10;2.00;;;10.50;99.90;;;;;;5521720;25;19998;-71
2024/04/10 03:13:26;;;;;;;4.03;1.80;;;10.50;99.90;;;;;;5521668;25;20089;-71
2024/04/10 03:15:51;;;;;;;3.83;1.17;;;10.50;99.90;;;;;;5523238;25;19998;-71
2024/04/10 03:18:17;;;;;;;5.88;2.03;;;10.50;99.90;;;;;;5519016;25;19998;-72
2024/04/10 03:20:43;;;;;;;4.18;1.60;;;10.50;99.90;;;;;;5522422;25;20008;-72
2024/04/10 03:23:08;;;;;;;4.85;2.00;;;10.50;99.90;;;;;;5515284;25;20008;-72
2024/04/10 03:25:34;;;;;;;2.83;1.40;;;10.50;99.90;;;;;;5520607;25;20413;-72
2024/04/10 03:28:00;;;;;;;4.20;1.50;;;10.50;99.90;;;;;;5518414;25;20448;-71
2024/04/10 03:30:26;;;;;;;6.03;1.80;;;10.50;99.90;;;;;;5516261;25;20011;-72
2024/04/10 03:32:53;;;;;;;1.95;1.60;;;10.50;99.90;;;;;;5513671;25;20525;-71
2024/04/10 03:35:19;;;;;;;5.63;1.88;;;10.50;99.90;;;;;;5523202;25;20341;-71
2024/04/10 03:37:45;;;;;;;6.22;1.83;;;10.50;99.90;;;;;;5508681;25;19997;-72
2024/04/10 03:40:11;;;;;;;2.55;1.20;;;10.50;99.90;;;;;;5519444;25;20473;-71
2024/04/10 03:42:37;;;;;;;6.50;1.70;;;10.50;99.90;;;;;;5519688;25;20002;-71
2024/04/10 03:45:03;;;;;;;4.05;1.70;;;10.50;99.90;;;;;;5516339;25;20001;-71
2024/04/10 03:47:28;;;;;;;2.53;1.35;;;10.50;99.90;;;;;;5513479;25;20025;-70
2024/04/10 03:49:54;;;;;;;3.30;1.42;;;10.50;99.90;;;;;;5519714;25;20085;-71
2024/04/10 03:52:19;;;;;;;3.42;2.03;;;10.50;99.90;;;;;;5526939;25;19996;-69
2024/04/10 03:54:45;;;;;;;8.82;1.85;;;10.50;99.90;;;;;;5522569;25;20005;-70
2024/04/10 03:57:10;;;;;;;4.50;1.55;;;10.50;99.90;;;;;;5513964;25;20012;-72
2024/04/10 03:59:36;;;;;;;3.78;1.67;;;10.50;99.90;;;;;;5520766;25;19994;-70
2024/04/10 04:02:02;;;;;;;5.75;2.08;;;10.50;99.90;;;;;;5513173;25;20008;-70
2024/04/10 04:04:28;;;;;;;6.03;1.77;;;10.50;99.90;;;;;;5520828;25;19997;-71
2024/04/10 04:06:53;;;;;;;6.68;2.40;;;10.50;99.90;;;;;;5515843;25;20012;-72
2024/04/10 04:09:19;;;;;;;3.35;1.75;;;10.50;99.90;;;;;;5526111;25;20011;-71
2024/04/10 04:11:44;;;;;;;5.80;1.77;;;10.40;99.90;;;;;;5529752;25;20016;-72
2024/04/10 04:14:10;;;;;;;3.78;1.70;;;10.50;99.90;;;;;;5512333;25;20001;-70
2024/04/10 04:16:35;;;;;;;5.88;2.22;;;10.50;99.90;;;;;;5521560;25;20484;-71
2024/04/10 04:19:01;;;;;;;4.07;1.70;;;10.40;99.90;;;;;;5517192;25;19994;-70
2024/04/10 04:21:27;;;;;;;3.42;1.83;;;10.40;99.90;;;;;;5521762;25;19997;-72
2024/04/10 04:23:53;;;;;;;3.45;1.73;;;10.40;99.90;;;;;;5519280;25;20008;-71
2024/04/10 04:26:19;;;;;;;2.25;1.60;;;10.40;99.90;;;;;;5512424;25;19998;-71
2024/04/10 04:28:46;;;;;;;4.47;1.85;;;10.40;99.90;;;;;;5519815;25;20008;-71
2024/04/10 04:31:14;;;;;;;4.70;1.77;;;10.40;99.90;;;;;;5515997;25;20005;-72
2024/04/10 04:33:39;;;;;;;5.93;2.08;;;10.50;99.90;;;;;;5507829;25;20036;-71
2024/04/10 04:36:06;;;;;;;2.30;1.83;;;10.40;99.90;;;;;;5519841;25;20016;-70
2024/04/10 04:38:32;;;;;;;5.75;2.08;;;10.50;99.90;;;;;;5514643;25;20349;-72
2024/04/10 04:40:58;;;;;;;5.60;2.13;;;10.50;99.90;;;;;;5507851;25;20008;-59
2024/04/10 04:43:25;;;;;;;9.38;2.63;;;10.50;99.90;;;;;;5517553;25;20007;-62
2024/04/10 04:45:50;;;;;;;4.15;1.50;;;10.40;99.90;;;;;;5520916;25;19997;-59
2024/04/10 04:48:15;;;;;;;6.03;1.88;;;10.50;99.90;;;;;;5511873;25;20069;-59
2024/04/10 04:50:41;;;;;;;7.50;2.10;;;10.50;99.90;;;;;;5519862;25;20305;-59
2024/04/10 04:53:13;;;;;;;5.40;1.83;;;10.50;99.90;;;;;;5511440;25;20008;-58
2024/04/10 04:55:40;;;;;;;2.75;1.67;;;10.50;99.90;;;;;;5506714;25;19997;-58
2024/04/10 04:58:06;;;;;;;3.38;1.60;;;10.60;99.90;;;;;;5490149;25;20005;-58
2024/04/10 05:00:32;;;;;;;8.35;2.10;;;10.60;99.90;;;;;;5507059;25;20042;-59
2024/04/10 05:02:59;;;;;;;5.45;1.92;;;10.60;99.90;;;;;;5497658;25;20373;-59
2024/04/10 05:05:24;;;;;;;3.58;1.90;;;10.60;99.90;;;;;;5501257;25;20832;-58
2024/04/10 05:07:50;;;;;;;5.53;2.15;;;10.60;99.90;;;;;;5505768;25;20035;-59
2024/04/10 05:10:16;;;;;;;4.80;1.85;;;10.70;99.90;;;;;;5506155;25;20012;-59
2024/04/10 05:12:42;;;;;;;3.47;2.03;;;10.70;99.90;;;;;;5511377;25;20016;-59
2024/04/10 05:15:10;;;;;;;4.43;2.33;;;10.70;99.90;;;;;;5502323;25;19997;-58
2024/04/10 05:17:39;;;;;;;4.53;2.03;;;10.70;99.90;;;;;;5501331;25;20005;-58
2024/04/10 05:20:08;;;;;;;4.53;1.85;;;10.70;99.90;;;;;;5506064;25;19998;-57
2024/04/10 05:22:34;;;;;;;5.10;1.55;;;10.70;99.90;;;;;;5514311;25;20005;-58
2024/04/10 05:24:59;;;;;;;3.72;1.73;;;10.70;99.90;;;;;;5515855;25;20090;-59
2024/04/10 05:27:26;;;;;;;4.60;2.00;;;10.80;99.90;;;;;;5515720;25;20001;-59
2024/04/10 05:30:06;;;;;;;4.53;1.80;;;10.80;99.90;;;;;;5501864;25;20331;-58
2024/04/10 05:32:38;;;;;;;3.42;1.70;;;10.90;99.90;;;;;;5502051;25;20016;-60
2024/04/10 05:35:15;;;;;;;5.93;1.70;;;10.90;99.90;;;;;;5502642;25;20017;-59
2024/04/10 05:37:40;;;;;;;4.95;1.63;;;11.00;99.90;;;;;;5507478;25;20001;-58
2024/04/10 05:40:09;;;;;;;5.53;1.73;;;11.00;99.90;;;;;;5506535;25;20015;-59
2024/04/10 05:42:38;;;;;;;3.88;1.80;;;11.10;99.90;;;;;;5497401;25;20005;-58
2024/04/10 05:45:08;;;;;;;2.88;1.60;;;11.10;99.90;;;;;;5505520;25;20032;-59
2024/04/10 05:47:35;;;;;;;5.72;2.20;;;11.20;99.90;;;;;;5508735;25;20013;-58
2024/04/10 05:50:01;;;;;;;5.40;1.83;;;11.30;99.90;;;;;;5519738;25;19993;-58
2024/04/10 05:52:27;;;;;;;4.32;1.50;;;11.40;99.90;;;;;;5516159;25;20058;-59
2024/04/10 05:54:53;;;;;;;2.45;1.40;;;11.40;99.90;;;;;;5506962;25;20423;-58
2024/04/10 05:57:19;;;;;;;4.45;2.15;;;11.50;99.90;;;;;;5509724;25;19998;-58
2024/04/10 05:59:45;;;;;;;8.45;1.77;;;11.50;99.90;;;;;;5501060;25;20024;-57
2024/04/10 06:02:10;;;;;;;6.90;1.80;;;11.60;99.90;;;;;;5515107;25;19992;-59
2024/04/10 06:04:36;;;;;;;2.72;1.42;;;11.70;99.90;;;;;;5506240;25;19993;-59
2024/04/10 06:07:02;;;;;;;4.53;1.90;;;11.90;99.80;;;;;;5497899;25;20854;-58
2024/04/10 06:09:28;;;;;;;4.47;1.40;;;12.00;99.10;;;;;;5513355;25;20429;-58
2024/04/10 06:11:53;;;;;;;2.38;1.35;;;12.20;97.90;;;;;;5507499;25;20008;-59
2024/04/10 06:14:19;;;;;;;5.15;1.90;;;12.50;97.30;;;;;;5509976;25;20455;-58
2024/04/10 06:16:45;;;;;;;2.92;1.50;;;12.80;96.30;;;;;;5513514;25;19997;-58
2024/04/10 06:19:11;;;;;;;3.05;1.40;;;13.10;95.60;;;;;;5508619;25;19992;-59
2024/04/10 06:21:36;;;;;;;3.80;1.58;;;13.30;95.00;;;;;;5513615;25;20004;-58
2024/04/10 06:24:02;;;;;;;2.45;1.10;;;13.60;93.90;;;;;;5509000;25;19993;-58
2024/04/10 06:26:27;;;;;;;3.78;1.98;;;13.70;92.90;;;;;;5510708;25;19989;-58
2024/04/10 06:28:54;;;;;;;5.32;1.55;;;13.60;92.40;;;;;;5498943;25;19994;-59
2024/04/10 06:31:19;;;;;;;3.50;1.65;;;13.60;92.00;;;;;;5496026;25;20398;-59
2024/04/10 06:33:45;;;;;;;3.10;1.20;;;13.70;91.80;;;;;;5513090;25;20004;-59
2024/04/10 06:36:10;;;;;;;3.05;1.58;;;13.70;90.90;;;;;;5503828;25;20326;-59
2024/04/10 06:38:38;;;;;;;3.22;1.67;;;13.80;90.80;;;;;;5502175;25;20434;-59
2024/04/10 06:41:04;;;;;;;5.95;1.95;;;13.90;90.30;;;;;;5492243;25;20516;-58
2024/04/10 06:43:31;;;;;;;7.82;2.10;;;13.90;88.40;;;;;;5504630;25;20493;-58
2024/04/10 06:45:58;;;;;;;5.70;2.28;;;13.80;82.80;;;;;;5503910;25;20004;-58
2024/04/10 06:48:24;;;;;;;8.02;2.63;;;13.80;81.50;;;;;;5506668;25;20041;-58
2024/04/10 06:50:56;;;;;;;8.70;2.42;;;13.90;79.80;;;;;;5505148;25;19993;-58
2024/04/10 06:53:23;;;;;;;5.65;2.10;;;13.80;78.00;;;;;;5499465;26;20029;-58
2024/04/10 06:55:55;;;;;;;6.40;2.10;;;13.90;76.90;;;;;;5500140;25;20014;-59
2024/04/10 06:58:22;;;;;;;4.82;2.45;;;14.00;74.70;;;;;;5510421;25;20731;-58
2024/04/10 07:00:58;;;;;;;4.68;1.92;;;14.10;74.70;;;;;;5503867;25;20020;-58
2024/04/10 07:03:25;;;;;;;4.45;1.83;;;14.40;72.10;;;;;;5503195;25;19998;-58
2024/04/10 07:05:50;;;;;;;4.90;2.03;;;14.90;71.80;;;;;;5502813;25;20009;-59
2024/04/10 07:08:16;;;;;;;4.57;1.90;;;15.00;70.60;;;;;;5501709;25;20037;-59
2024/04/10 07:10:43;;;;;;;2.88;1.75;;;15.10;70.10;;;;;;5503089;25;20333;-58
2024/04/10 07:13:08;;;;;;;7.97;2.70;;;15.10;67.90;;;;;;5502975;25;20000;-59
2024/04/10 07:15:34;;;;;;;4.15;2.38;;;15.10;67.20;;;;;;5519079;25;20516;-59
2024/04/10 07:17:59;;;;;;;5.70;2.00;;;15.10;66.50;;;;;;5505567;25;20317;-59
2024/04/10 07:20:26;;;;;;;8.40;2.65;;;15.20;64.50;;;;;;5502880;25;20332;-58
2024/04/10 07:22:51;;;;;;;6.25;2.47;;;15.20;64.50;;;;;;5511227;25;20472;-59
2024/04/10 07:25:17;;;;;;;3.20;2.03;;;15.30;65.00;;;;;;5502729;25;19998;-59
2024/04/10 07:27:43;;;;;;;6.57;2.13;;;15.30;64.10;;;;;;5504920;25;20302;-58
2024/04/10 07:30:08;;;;;;;5.20;1.88;;;15.40;63.10;;;;;;5502953;25;20037;-59
2024/04/10 07:32:34;;;;;;;6.05;1.95;;;15.50;63.00;;;;;;5505610;25;20001;-59
2024/04/10 07:34:59;;;;;;;6.10;2.13;;;15.50;61.70;;;;;;5508707;25;19996;-59
2024/04/10 07:37:25;;;;;;;5.18;2.08;;;15.60;61.80;;;;;;5513474;25;20073;-58
2024/04/10 07:39:50;;;;;;;4.07;1.60;;;15.70;61.90;;;;;;5499717;25;20020;-59
2024/04/10 07:42:16;;;;;;;7.57;1.80;;;15.70;61.20;;;;;;5509106;25;20021;-59
2024/04/10 07:44:41;;;;;;;4.18;1.80;;;15.80;61.20;;;;;;5514661;25;20425;-58
2024/04/10 07:47:07;;;;;;;5.32;1.83;;;15.80;60.20;;;;;;5525350;25;20391;-59
2024/04/10 07:49:32;;;;;;;3.78;1.38;;;15.80;59.80;;;;;;5511103;25;19997;-58
2024/04/10 07:52:00;;;;;;;3.58;1.88;;;15.70;59.40;;;;;;5510974;25;19997;-58
2024/04/10 07:54:28;;;;;;;5.03;2.00;;;15.60;59.50;;;;;;5504543;25;20417;-58
2024/04/10 07:56:54;;;;;;;1.92;1.52;;;15.60;59.00;;;;;;5502464;25;20012;-58
2024/04/10 07:59:20;;;;;;;3.67;1.73;;;15.50;59.10;;;;;;5514650;25;20021;-58
2024/04/10 08:01:46;;;;;;;4.75;1.90;;;15.50;58.30;;;;;;5511783;25;20359;-57
2024/04/10 08:04:11;;;;;;;5.57;2.30;;;15.50;58.30;;;;;;5515815;25;20412;-58
2024/04/10 08:06:37;;;;;;;3.67;1.50;;;15.60;57.90;;;;;;5519957;25;19994;-59
2024/04/10 08:09:03;;;;;;;3.53;1.80;;;15.80;57.50;;;;;;5510806;25;20720;-59
2024/04/10 08:11:29;;;;;;;2.47;1.33;;;16.10;56.60;;;;;;5515097;25;20005;-59
2024/04/10 08:13:54;;;;;;;4.47;2.10;;;16.40;56.30;;;;;;5511339;25;20358;-59
2024/04/10 08:16:20;;;;;;;6.95;1.70;;;16.50;54.80;;;;;;5519928;25;20068;-59
2024/04/10 08:18:45;;;;;;;5.35;1.70;;;16.60;54.70;;;;;;5510025;25;20329;-59
2024/04/10 08:21:13;;;;;;;4.03;1.30;;;16.70;54.30;;;;;;5516082;25;20057;-59
2024/04/10 08:23:40;;;;;;;3.03;1.45;;;16.90;53.50;;;;;;5521209;25;19997;-59
2024/04/10 08:26:19;;;;;;;2.85;1.42;;;17.20;53.70;;;;;;5502900;25;19994;-59
2024/04/10 08:28:49;;;;;;;2.17;0.95;;;17.40;51.20;;;;;;5497591;25;20065;-58
2024/04/10 08:31:21;;;;;;;3.60;1.40;;;17.70;51.80;;;;;;5503237;25;20013;-58
2024/04/10 08:33:47;;;;;;;3.97;1.70;;;17.90;49.60;;;;;;5514161;25;19996;-59
2024/04/10 08:36:13;;;;;;;4.00;1.45;;;18.00;50.40;;;;;;5515882;25;20008;-59
2024/04/10 08:38:40;;;;;;;4.53;1.63;;;18.40;48.90;;;;;;5518133;25;20067;-58
2024/04/10 08:41:12;;;;;;;6.22;1.75;;;18.80;48.50;;;;;;5503776;25;20025;-58
2024/04/10 08:43:41;;;;;;;2.97;1.20;;;19.20;47.20;;;;;;5500552;25;20469;-59
2024/04/10 08:46:08;;;;;;;3.17;1.60;;;19.60;46.50;;;;;;5514193;25;20548;-59
2024/04/10 08:48:34;;;;;;;5.65;1.48;;;19.80;45.30;;;;;;5505374;25;19997;-59
2024/04/10 08:51:02;;;;;;;6.10;1.48;;;19.80;45.20;;;;;;5504868;25;20451;-59
2024/04/10 08:53:30;;;;;;;2.53;1.40;;;19.60;41.90;;;;;;5511019;25;20001;-58
2024/04/10 08:55:55;;;;;;;4.03;1.83;;;19.30;41.00;;;;;;5503832;25;20037;-59
2024/04/10 08:58:22;;;;;;;4.90;1.45;;;18.90;38.90;;;;;;5502476;25;20632;-58
2024/04/10 09:00:47;;;;;;;4.22;1.50;;;18.60;39.40;;;;;;5508348;25;20024;-59
2024/04/10 09:03:13;;;;;;;3.95;1.48;;;18.50;39.20;;;;;;5507206;25;20342;-59
2024/04/10 09:05:39;;;;;;;3.55;1.40;;;18.50;39.20;;;;;;5508944;25;20069;-59
2024/04/10 09:08:05;;;;;;;3.00;1.23;;;18.50;37.90;;;;;;5502927;25;19993;-59
2024/04/10 09:10:31;;;;;;;5.53;1.40;;;18.60;37.00;;;;;;5502972;25;20406;-58
2024/04/10 09:13:04;;;;;;;4.57;1.83;;;18.70;39.40;;;;;;5495837;25;20512;-58
2024/04/10 09:15:30;;;;;;;4.43;1.40;;;18.70;36.30;;;;;;5505094;25;20001;-59
2024/04/10 09:17:57;;;;;;;3.65;1.42;;;18.70;39.10;;;;;;5511707;25;20310;-58
2024/04/10 09:20:22;;;;;;;4.53;1.30;;;18.60;38.80;;;;;;5517382;25;20062;-58
2024/04/10 09:22:59;;;;;;;3.50;1.45;;;18.60;39.20;;;;;;5516230;25;19994;-59
2024/04/10 09:25:25;;;;;;;3.40;1.17;;;18.40;37.30;;;;;;5503137;25;20008;-58
2024/04/10 09:28:04;;;;;;;4.88;1.40;;;18.20;38.80;;;;;;5507799;25;19998;-59
2024/04/10 09:30:31;;;;;;;5.47;1.63;;;17.90;38.10;;;;;;5503211;25;20510;-59
2024/04/10 09:32:59;;;;;;;6.15;2.05;;;17.70;38.60;;;;;;5511026;25;20441;-59
2024/04/10 09:35:25;;;;;;;4.05;1.23;;;17.50;37.90;;;;;;5514030;25;19993;-58
2024/04/10 09:37:54;;;;;;;6.25;1.63;;;17.40;38.70;;;;;;5516671;25;20009;-59
2024/04/10 09:40:23;;;;;;;3.17;1.58;;;17.30;38.40;;;;;;5508282;25;20465;-59
2024/04/10 09:42:49;;;;;;;5.18;1.48;;;17.30;38.40;;;;;;5500899;25;20612;-59
2024/04/10 09:45:20;;;;;;;5.78;1.90;;;17.30;38.60;;;;;;5511275;25;20001;-59
2024/04/10 09:47:46;;;;;;;5.43;2.17;;;17.20;37.40;;;;;;5501656;25;20437;-59
2024/04/10 09:50:17;;;;;;;5.63;1.55;;;17.40;38.00;;;;;;5506138;25;20002;-59
2024/04/10 09:52:45;;;;;;;4.85;1.42;;;17.30;38.10;;;;;;5507012;25;19997;-59
2024/04/10 09:55:15;;;;;;;3.35;1.13;;;17.50;38.40;;;;;;5516537;25;20437;-59
2024/04/10 09:57:43;;;;;;;5.70;1.40;;;17.50;37.20;;;;;;5502237;25;20111;-59
2024/04/10 10:00:09;;;;;;;2.92;1.40;;;17.60;37.80;;;;;;5505000;25;20033;-59
2024/04/10 10:02:35;;;;;;;3.05;1.27;;;17.50;37.40;;;;;;5509761;25;19994;-59
2024/04/10 10:05:00;;;;;;;6.18;1.42;;;17.40;36.90;;;;;;5504289;25;20012;-59
2024/04/10 10:07:26;;;;;;;2.33;1.05;;;17.50;36.50;;;;;;5510892;25;20007;-58
2024/04/10 10:10:05;;;;;;;2.50;1.20;;;17.40;36.70;;;;;;5517892;25;20349;-59
2024/04/10 10:12:30;;;;;;;3.58;1.40;;;17.10;36.80;;;;;;5512760;25;20019;-59
2024/04/10 10:15:09;;;;;;;5.95;1.23;;;16.90;37.00;;;;;;5508828;25;20320;-59
2024/04/10 10:17:34;;;;;;;4.10;1.10;;;16.90;36.70;;;;;;5498233;25;19997;-59
2024/04/10 10:20:00;;;;;;;2.97;1.15;;;16.80;37.10;;;;;;5508262;25;20011;-59
2024/04/10 10:22:25;;;;;;;3.10;1.25;;;16.90;37.40;;;;;;5516917;25;20029;-58
2024/04/10 10:24:57;;;;;;;2.50;0.80;;;17.00;37.70;;;;;;5506756;25;20009;-59
2024/04/10 10:27:24;;;;;;;8.85;1.08;;;17.20;37.50;;;;;;5521657;25;20070;-57
2024/04/10 10:29:49;;;;;;;3.17;1.38;;;17.50;37.30;;;;;;5519800;25;20009;-59
2024/04/10 10:32:19;;;;;;;2.78;1.02;;;17.80;36.50;;;;;;5505908;25;20074;-59
2024/04/10 10:34:45;;;;;;;4.07;1.20;;;18.00;35.80;;;;;;5497432;25;20001;-60
2024/04/10 10:37:11;;;;;;;3.88;0.90;;;18.00;35.70;;;;;;5504585;25;19998;-58
2024/04/10 10:39:43;;;;;;;3.45;0.98;;;17.90;35.20;;;;;;5505813;25;19993;-59
2024/04/10 10:42:08;;;;;;;2.13;1.08;;;17.80;34.90;;;;;;5500832;25;20050;-59
2024/04/10 10:44:34;;;;;;;1.83;0.88;;;17.80;35.30;;;;;;5515670;25;20001;-71
2024/04/10 10:47:05;;;;;;;3.08;1.00;;;17.80;35.10;;;;;;5512506;25;20011;-60
2024/04/10 10:49:31;;;;;;;3.13;1.00;;;17.80;35.30;;;;;;5510409;25;19997;-59
2024/04/10 10:51:57;;;;;;;2.28;0.93;;;17.70;34.80;;;;;;5515237;25;20021;-60
2024/04/10 10:54:23;;;;;;;4.45;1.70;;;17.80;34.50;;;;;;5504848;25;20037;-58
2024/04/10 10:56:48;;;;;;;2.65;1.02;;;17.90;34.50;;;;;;5525180;25;20077;-59
2024/04/10 10:59:14;;;;;;;3.10;1.20;;;18.10;34.60;;;;;;5507276;25;20037;-58
2024/04/10 11:01:40;;;;;;;3.78;0.88;;;18.30;34.10;;;;;;5521026;25;20005;-59
2024/04/10 11:04:16;;;;;;;3.50;0.82;;;18.30;33.80;;;;;;5508129;25;20597;-58
2024/04/10 11:06:42;;;;;;;6.15;1.23;;;18.30;33.10;;;;;;5506967;25;20011;-59
2024/04/10 11:09:11;;;;;;;3.20;1.10;;;18.10;33.10;;;;;;5514003;25;19998;-58
2024/04/10 11:11:40;;;;;;;3.13;1.13;;;18.00;33.10;;;;;;5514275;25;20073;-60
2024/04/10 11:14:10;;;;;;;3.50;0.75;;;18.00;32.80;;;;;;5515217;25;20001;-59
2024/04/10 11:16:36;;;;;;;3.13;1.20;;;18.20;32.70;;;;;;5518977;25;20009;-58
2024/04/10 11:19:01;;;;;;;2.38;1.17;;;18.20;32.00;;;;;;5514574;25;20350;-59
2024/04/10 11:21:27;;;;;;;2.47;1.10;;;18.10;32.10;;;;;;5518109;25;20001;-58
2024/04/10 11:23:53;;;;;;;3.60;0.88;;;18.20;32.40;;;;;;5513473;25;20002;-59
2024/04/10 11:26:19;;;;;;;1.23;0.70;;;18.20;32.40;;;;;;5514537;25;20065;-59
2024/04/10 11:28:51;;;;;;;3.55;0.85;;;18.30;32.60;;;;;;5513619;25;20025;-59
2024/04/10 11:31:17;;;;;;;2.10;0.82;;;18.20;32.40;;;;;;5521624;25;20073;-59
2024/04/10 11:33:42;;;;;;;2.50;0.93;;;18.10;32.70;;;;;;5501894;25;20006;-59
2024/04/10 11:36:08;;;;;;;3.33;1.33;;;18.00;32.60;;;;;;5501261;25;20016;-59
2024/04/10 11:38:37;;;;;;;3.28;1.23;;;18.00;32.50;;;;;;5502728;25;20008;-59
2024/04/10 11:41:07;;;;;;;3.53;1.13;;;18.10;32.70;;;;;;5505062;25;19997;-58
2024/04/10 11:43:33;;;;;;;3.67;1.17;;;18.20;32.50;;;;;;5512389;25;20072;-58
2024/04/10 11:45:59;;;;;;;2.22;1.10;;;18.40;32.40;;;;;;5509726;25;20477;-59
2024/04/10 11:48:24;;;;;;;1.60;0.70;;;18.50;32.10;;;;;;5513899;25;20443;-58
2024/04/10 11:50:49;;;;;;;4.20;0.80;;;18.30;31.80;;;;;;5517679;25;20009;-58
2024/04/10 11:53:15;;;;;;;2.35;0.70;;;18.20;32.00;;;;;;5502860;25;20008;-59
2024/04/10 11:55:40;;;;;;;1.63;0.70;;;18.20;31.50;;;;;;5515201;25;19997;-58
2024/04/10 11:58:06;;;;;;;1.40;0.73;;;18.20;30.90;;;;;;5514291;25;20016;-57
2024/04/10 12:00:32;;;;;;;1.98;0.60;;;18.10;30.40;;;;;;5505942;25;20207;-59
2024/04/10 12:02:58;;;;;;;1.10;0.57;;;18.10;30.10;;;;;;5515446;25;20331;-59
2024/04/10 12:05:24;;;;;;;2.42;0.70;;;18.20;30.20;;;;;;5504011;25;20074;-59
2024/04/10 12:07:49;;;;;;;0.82;0.60;;;18.30;30.10;;;;;;5503023;25;20024;-59
2024/04/10 12:10:15;;;;;;;1.67;0.63;;;18.30;29.80;;;;;;5503592;25;20462;-59
2024/04/10 12:12:42;;;;;;;2.33;0.68;;;18.30;29.90;;;;;;5499181;25;19994;-59
2024/04/10 12:15:08;;;;;;;1.83;0.80;;;18.30;29.80;;;;;;5507471;25;19997;-58
2024/04/10 12:17:34;;;;;;;1.92;0.77;;;18.40;29.90;;;;;;5511605;25;19993;-58
2024/04/10 12:20:01;;;;;;;2.05;0.80;;;18.50;29.90;;;;;;5502788;25;20019;-59
2024/04/10 12:22:27;;;;;;;2.35;0.75;;;18.50;29.80;;;;;;5507411;25;20410;-59
2024/04/10 12:24:53;;;;;;;2.08;0.60;;;18.30;29.70;;;;;;5504647;25;20001;-59
2024/04/10 12:27:18;;;;;;;1.65;0.68;;;18.20;29.90;;;;;;5502593;25;20070;-58
2024/04/10 12:29:45;;;;;;;3.95;0.82;;;18.00;29.90;;;;;;5505386;25;20114;-58
2024/04/10 12:32:10;;;;;;;2.25;0.80;;;17.90;30.20;;;;;;5503887;25;20020;-58
2024/04/10 12:34:36;;;;;;;1.63;0.60;;;17.70;30.00;;;;;;5502658;25;20782;-57
2024/04/10 12:39:46;;;;;;;1.13;0.73;;;17.40;30.20;;;;;;5493629;25;20077;-58
2024/04/10 12:42:11;;;;;;;1.88;0.82;;;17.40;30.50;;;;;;5507209;25;20013;-58
2024/04/10 12:44:38;;;;;;;2.88;0.80;;;17.50;30.50;;;;;;5504974;25;19993;-59
2024/04/10 12:47:03;;;;;;;2.40;0.90;;;17.70;30.40;;;;;;5505394;25;20001;-59